Sugarloaf Mountain, Maine
Current Conditions -  °F | °C
As of 9:55 AM on Sunday 28 Dec 2014 (Local Time) from KWVL Reporting Station
Overcast Overcast  
Wind Chill: 34°   Ceiling: 300
Heat Index: 39°   Visibility: 3mi
Dew Point: 36°   Wind: 8mph
Humidity: 87%   Direction: 210°SSW
Pressure: 29.67"   Gusts: NA
Location:  45.1°N, 70.2°W
Report Text: KWVL 281455Z 21007KT 3SM OVC003 04/02 A2967 RMK AO1 60006 57007
Loading
Personal Weather Stations






























Interactive Weather Map New forecast layout! Learn more

10-Day Weather Forecast

Advertisements
Track Severe Weather on mobile